Terminal Aerodrome Forecast
Issued by NWS Paducah, KY

Home | Current Version | Previous Version | Text Only | Print | Product List | Glossary On
Versions: 1 2 3 4 5 6 7 8 9 10 11 12 13
591
FTUS43 KPAH 021120
TAFEVV
TAF
KEVV 021120Z 0212/0312 29005KT P6SM SCT020 SCT120
      TEMPO 0212/0214 BKN020
     FM021800 31007KT P6SM BKN035
     FM030300 31004KT P6SM SCT025 BKN030=

USA.gov is the U.S. government's official web portal to all federal, state and local government web resources and services.